createdAt,value
2022-08-11T00:02:00.156Z,17.00
2022-08-11T00:04:34.159Z,17.00
2022-08-11T00:07:03.535Z,17.00
2022-08-11T00:09:39.349Z,17.00
2022-08-11T00:12:14.183Z,17.00
2022-08-11T00:14:42.785Z,17.00
2022-08-11T00:17:13.120Z,17.00
2022-08-11T00:20:12.930Z,16.90
2022-08-11T00:22:33.685Z,16.90
2022-08-11T00:25:10.223Z,16.90
2022-08-11T00:27:39.417Z,16.80
2022-08-11T00:30:07.973Z,16.80
2022-08-11T00:32:37.170Z,16.70
2022-08-11T00:35:54.865Z,16.70
2022-08-11T00:37:56.506Z,16.70
2022-08-11T00:40:44.102Z,16.80
2022-08-11T00:43:32.869Z,16.80
2022-08-11T00:46:12.558Z,16.80
2022-08-11T00:49:01.985Z,16.80
2022-08-11T00:51:56.724Z,16.70
2022-08-11T00:54:49.809Z,16.70
2022-08-11T00:57:50.630Z,16.60
2022-08-11T01:00:20.582Z,16.60
2022-08-11T01:03:12.922Z,16.50
2022-08-11T01:06:10.853Z,16.60
2022-08-11T01:08:56.337Z,16.50
2022-08-11T01:11:22.926Z,16.40
2022-08-11T01:14:08.511Z,16.30
2022-08-11T01:16:41.069Z,16.30
2022-08-11T01:19:16.529Z,16.30
2022-08-11T01:22:32.164Z,16.30
2022-08-11T01:25:57.125Z,16.20
2022-08-11T01:28:40.425Z,16.10
2022-08-11T01:31:49.804Z,16.00
2022-08-11T01:34:44.166Z,16.00
2022-08-11T01:37:37.178Z,15.90
2022-08-11T01:40:19.114Z,15.90
2022-08-11T01:43:12.960Z,15.90
2022-08-11T01:45:48.640Z,15.90
2022-08-11T01:48:37.935Z,15.90
2022-08-11T01:51:45.269Z,15.70
2022-08-11T01:54:31.196Z,15.70
2022-08-11T01:57:26.459Z,15.70
2022-08-11T02:00:08.430Z,15.60
2022-08-11T02:02:48.133Z,15.60
2022-08-11T02:05:31.776Z,15.50
2022-08-11T02:08:32.998Z,15.60
2022-08-11T02:11:30.967Z,15.50
2022-08-11T02:14:26.177Z,15.50
2022-08-11T02:17:03.105Z,15.50
2022-08-11T02:19:57.313Z,15.40
2022-08-11T02:23:09.805Z,15.40
2022-08-11T02:25:39.188Z,15.40
2022-08-11T02:28:29.272Z,15.40
2022-08-11T02:32:24.705Z,15.40
2022-08-11T02:34:44.183Z,15.40
2022-08-11T02:37:45.006Z,15.50
2022-08-11T02:40:25.058Z,15.60
2022-08-11T02:43:00.036Z,15.70
2022-08-11T02:46:17.956Z,15.70
2022-08-11T02:49:16.663Z,15.70
2022-08-11T02:52:15.471Z,15.80
2022-08-11T02:55:02.100Z,15.70
2022-08-11T02:57:41.409Z,15.70
2022-08-11T03:00:11.808Z,15.60
2022-08-11T03:02:46.470Z,15.50
2022-08-11T03:05:25.297Z,15.50
2022-08-11T03:08:18.767Z,15.50
2022-08-11T03:11:18.984Z,15.30
2022-08-11T03:14:20.511Z,15.20
2022-08-11T03:17:20.406Z,15.20
2022-08-11T03:20:19.132Z,15.10
2022-08-11T03:22:57.730Z,15.20
2022-08-11T03:25:39.512Z,15.20
2022-08-11T03:28:32.803Z,15.20
2022-08-11T03:31:27.115Z,15.10
2022-08-11T03:34:20.889Z,15.00
2022-08-11T03:37:17.559Z,15.00
2022-08-11T03:40:12.485Z,14.90
2022-08-11T03:43:00.004Z,14.80
2022-08-11T03:45:36.243Z,14.80
2022-08-11T03:48:39.391Z,14.80
2022-08-11T03:51:23.365Z,14.80
2022-08-11T03:54:20.875Z,14.80
2022-08-11T03:57:25.456Z,14.80
2022-08-11T04:00:29.715Z,14.70
2022-08-11T04:03:12.367Z,14.70
2022-08-11T04:05:57.643Z,14.80
2022-08-11T04:08:58.108Z,14.80
2022-08-11T04:12:08.953Z,14.70
2022-08-11T04:15:51.045Z,14.70
2022-08-11T04:18:56.275Z,14.70
2022-08-11T04:21:56.134Z,14.60
2022-08-11T04:24:51.013Z,14.60
2022-08-11T04:27:47.915Z,14.60
2022-08-11T04:30:17.743Z,14.60
2022-08-11T04:33:03.021Z,14.60
2022-08-11T04:36:09.516Z,14.70
2022-08-11T04:38:58.614Z,14.70
2022-08-11T04:42:03.491Z,14.70
2022-08-11T04:44:51.998Z,14.70
2022-08-11T04:48:06.530Z,14.80
2022-08-11T04:51:17.157Z,14.80
2022-08-11T04:54:28.334Z,14.90
2022-08-11T04:57:22.191Z,14.90
2022-08-11T05:00:20.727Z,15.00
2022-08-11T05:03:03.413Z,15.10
2022-08-11T05:05:57.880Z,15.20
2022-08-11T05:08:52.715Z,15.30
2022-08-11T05:11:22.414Z,15.30
2022-08-11T05:14:10.888Z,15.40
2022-08-11T05:17:09.613Z,15.50
2022-08-11T05:19:55.654Z,15.60
2022-08-11T05:22:47.376Z,15.70
2022-08-11T05:26:47.744Z,15.80
2022-08-11T05:28:59.949Z,15.90
2022-08-11T05:31:59.718Z,16.00
2022-08-11T05:34:50.727Z,16.10
2022-08-11T05:37:29.693Z,16.20
2022-08-11T05:40:24.199Z,16.30
2022-08-11T05:43:14.045Z,16.40
2022-08-11T05:46:03.451Z,16.50
2022-08-11T05:48:54.672Z,16.60
2022-08-11T05:51:54.872Z,16.70
2022-08-11T05:54:42.184Z,16.80
2022-08-11T05:57:10.030Z,16.90
2022-08-11T06:00:01.889Z,17.10
2022-08-11T06:02:29.672Z,17.20
2022-08-11T06:04:58.907Z,17.40
2022-08-11T06:07:48.623Z,17.50
2022-08-11T06:10:33.385Z,17.50
2022-08-11T06:13:01.607Z,17.70
2022-08-11T06:15:31.057Z,17.80
2022-08-11T06:18:01.115Z,17.90
2022-08-11T06:20:32.693Z,18.00
2022-08-11T06:23:04.047Z,18.00
2022-08-11T06:25:36.062Z,18.20
2022-08-11T06:28:07.747Z,18.40
2022-08-11T06:30:42.433Z,18.50
2022-08-11T06:33:21.913Z,18.70
2022-08-11T06:36:07.529Z,18.80
2022-08-11T06:39:02.289Z,18.90
2022-08-11T06:41:45.582Z,19.00
2022-08-11T06:44:12.958Z,19.20
2022-08-11T06:46:44.602Z,19.30
2022-08-11T06:49:32.380Z,19.40
2022-08-11T06:52:01.928Z,19.50
2022-08-11T06:54:34.100Z,19.60
2022-08-11T06:57:30.481Z,19.60
2022-08-11T07:00:17.734Z,19.70
2022-08-11T07:02:56.521Z,19.80
2022-08-11T07:05:43.691Z,19.90
2022-08-11T07:08:38.159Z,20.00
2022-08-11T07:11:47.468Z,20.10
2022-08-11T07:14:39.569Z,20.30
2022-08-11T07:17:10.495Z,20.50
2022-08-11T07:20:06.574Z,20.60
2022-08-11T07:22:54.581Z,20.70
2022-08-11T07:25:41.475Z,20.70
2022-08-11T07:28:36.144Z,20.90
2022-08-11T07:31:09.493Z,21.00
2022-08-11T07:34:08.491Z,21.20
2022-08-11T07:36:42.694Z,21.20
2022-08-11T07:39:20.840Z,21.40
2022-08-11T07:41:48.900Z,21.50
2022-08-11T07:44:17.105Z,21.70
2022-08-11T07:47:04.838Z,21.80
2022-08-11T07:49:55.333Z,21.90
2022-08-11T07:52:32.524Z,22.00
2022-08-11T07:55:05.706Z,22.10
2022-08-11T07:58:16.520Z,22.10
2022-08-11T08:01:03.234Z,22.10
2022-08-11T08:03:56.366Z,22.20
2022-08-11T08:06:42.281Z,22.40
2022-08-11T08:09:28.884Z,22.40
2022-08-11T08:12:15.309Z,22.50
2022-08-11T08:15:01.108Z,22.70
2022-08-11T08:18:08.257Z,22.90
2022-08-11T08:20:47.032Z,23.00
2022-08-11T08:23:17.140Z,23.10
2022-08-11T08:25:46.303Z,23.20
2022-08-11T08:28:16.351Z,23.30
2022-08-11T08:30:55.536Z,23.30
2022-08-11T08:33:32.483Z,23.50
2022-08-11T08:36:12.892Z,23.70
2022-08-11T08:38:47.012Z,23.80
2022-08-11T08:41:19.523Z,23.90
2022-08-11T08:43:51.403Z,24.10
2022-08-11T08:46:25.440Z,24.20
2022-08-11T08:48:53.331Z,24.40
2022-08-11T08:51:54.858Z,24.50
2022-08-11T08:54:26.752Z,24.50
2022-08-11T08:56:56.727Z,24.50
2022-08-11T08:59:27.000Z,24.70
2022-08-11T09:02:14.461Z,24.80
2022-08-11T09:04:45.817Z,24.90
2022-08-11T09:07:23.297Z,25.00
2022-08-11T09:09:52.523Z,25.20
2022-08-11T09:12:38.344Z,25.50
2022-08-11T09:15:08.156Z,25.70
2022-08-11T09:17:34.804Z,25.60
2022-08-11T09:20:06.649Z,25.60
2022-08-11T09:23:41.320Z,25.60
2022-08-11T09:26:03.880Z,25.70
2022-08-11T09:28:31.222Z,25.80
2022-08-11T09:31:01.134Z,25.80
2022-08-11T09:33:30.305Z,25.90
2022-08-11T09:35:58.161Z,26.10
2022-08-11T09:38:49.370Z,26.30
2022-08-11T09:41:17.177Z,26.40
2022-08-11T09:44:04.946Z,26.50
2022-08-11T09:46:33.090Z,26.60
2022-08-11T09:49:01.370Z,26.50
2022-08-11T09:51:31.915Z,26.50
2022-08-11T09:54:03.754Z,26.40
2022-08-11T09:56:50.882Z,26.40
2022-08-11T09:59:22.766Z,26.50
2022-08-11T10:02:00.038Z,26.70
2022-08-11T10:04:34.816Z,26.80
2022-08-11T10:07:06.497Z,26.90
2022-08-11T10:09:50.387Z,26.80
2022-08-11T10:12:32.539Z,26.80
2022-08-11T10:15:22.180Z,26.80
2022-08-11T10:18:14.465Z,26.80
2022-08-11T10:20:42.615Z,27.00
2022-08-11T10:23:30.653Z,27.20
2022-08-11T10:29:13.092Z,27.40
2022-08-11T10:32:02.929Z,27.60
2022-08-11T10:34:31.686Z,27.70
2022-08-11T10:37:02.932Z,27.60
2022-08-11T10:39:29.978Z,27.60
2022-08-11T10:42:29.983Z,27.60
2022-08-11T10:45:26.183Z,27.60
2022-08-11T10:47:57.207Z,27.60
2022-08-11T10:50:43.150Z,27.90
2022-08-11T10:53:29.059Z,28.00
2022-08-11T10:56:16.145Z,28.10
2022-08-11T10:58:49.448Z,28.10
2022-08-11T11:01:30.147Z,28.10
2022-08-11T11:04:04.320Z,28.20
2022-08-11T11:06:52.021Z,28.40
2022-08-11T11:09:32.381Z,28.60
2022-08-11T11:12:38.405Z,28.50
2022-08-11T11:15:25.388Z,28.60
2022-08-11T11:18:09.511Z,28.80
2022-08-11T11:20:57.808Z,28.90
2022-08-11T11:23:49.800Z,28.90
2022-08-11T11:27:09.461Z,29.00
2022-08-11T11:30:05.654Z,28.90
2022-08-11T11:32:35.234Z,29.30
2022-08-11T11:35:11.907Z,29.20
2022-08-11T11:37:40.795Z,29.50
2022-08-11T11:40:28.732Z,29.70
2022-08-11T11:43:00.410Z,30.00
2022-08-11T11:45:27.379Z,30.00
2022-08-11T11:47:58.952Z,30.00
2022-08-11T11:50:34.658Z,29.90
2022-08-11T11:53:04.408Z,30.20
2022-08-11T11:55:31.834Z,30.50
2022-08-11T11:58:20.173Z,30.70
2022-08-11T12:01:08.617Z,30.90
2022-08-11T12:03:37.815Z,31.00
2022-08-11T12:06:05.530Z,31.30
2022-08-11T12:08:32.878Z,31.30
2022-08-11T12:11:24.004Z,31.30
2022-08-11T12:13:53.036Z,31.60
2022-08-11T12:16:33.466Z,32.00
2022-08-11T12:19:05.936Z,32.10
2022-08-11T12:21:35.904Z,32.30
2022-08-11T12:24:22.175Z,32.60
2022-08-11T12:27:01.397Z,32.40
2022-08-11T12:29:36.404Z,32.10
2022-08-11T12:32:08.911Z,32.30
2022-08-11T12:34:36.316Z,32.30
2022-08-11T12:37:06.872Z,32.00
2022-08-11T12:40:16.657Z,32.00
2022-08-11T12:43:21.150Z,32.30
2022-08-11T12:45:58.332Z,32.80
2022-08-11T12:49:00.641Z,33.20
2022-08-11T12:52:12.483Z,33.20
2022-08-11T12:54:54.285Z,33.00
2022-08-11T12:57:53.764Z,33.00
2022-08-11T13:00:39.638Z,33.40
2022-08-11T13:03:27.590Z,33.30
2022-08-11T13:06:02.421Z,32.90
2022-08-11T13:08:31.546Z,32.90
2022-08-11T13:11:18.789Z,33.00
2022-08-11T13:13:55.128Z,33.10
2022-08-11T13:16:54.503Z,33.60
2022-08-11T13:19:22.788Z,34.20
2022-08-11T13:21:50.994Z,34.30
2022-08-11T13:24:19.041Z,34.10
2022-08-11T13:26:50.150Z,34.40
2022-08-11T13:29:23.824Z,34.60
2022-08-11T13:31:52.564Z,35.00
2022-08-11T13:34:21.503Z,34.90
2022-08-11T13:36:52.038Z,35.00
2022-08-11T13:39:21.035Z,35.20
2022-08-11T13:41:50.629Z,34.90
2022-08-11T13:44:23.224Z,34.90
2022-08-11T13:46:55.118Z,34.80
2022-08-11T13:49:22.502Z,35.00
2022-08-11T13:51:49.662Z,35.20
2022-08-11T13:54:22.544Z,35.20
2022-08-11T13:56:52.835Z,35.00
2022-08-11T13:59:23.018Z,35.10
2022-08-11T14:02:22.607Z,35.40
2022-08-11T14:04:55.398Z,35.20
2022-08-11T14:07:25.502Z,34.40
2022-08-11T14:09:59.829Z,34.70
2022-08-11T14:12:47.543Z,34.90
2022-08-11T14:15:19.988Z,34.90
2022-08-11T14:17:56.448Z,34.30
2022-08-11T14:20:39.083Z,34.40
2022-08-11T14:23:11.259Z,34.90
2022-08-11T14:26:02.369Z,35.10
2022-08-11T14:28:37.504Z,35.40
2022-08-11T14:31:08.336Z,35.60
2022-08-11T14:33:58.411Z,35.80
2022-08-11T14:36:34.859Z,36.00
2022-08-11T14:39:13.722Z,35.80
2022-08-11T14:42:11.520Z,35.70
2022-08-11T14:45:01.193Z,35.70
2022-08-11T14:47:29.979Z,35.70
2022-08-11T14:50:09.621Z,35.60
2022-08-11T14:52:38.301Z,35.80
2022-08-11T14:55:25.141Z,39.90
2022-08-11T14:57:55.106Z,43.40
2022-08-11T15:00:22.976Z,45.10
2022-08-11T15:03:08.713Z,44.20
2022-08-11T15:05:36.724Z,45.60
2022-08-11T15:08:03.915Z,46.80
2022-08-11T15:10:31.137Z,46.50
2022-08-11T15:12:58.145Z,46.00
2022-08-11T15:15:45.054Z,45.00
2022-08-11T15:18:16.625Z,46.20
2022-08-11T15:21:02.813Z,45.60
2022-08-11T15:23:48.893Z,45.70
2022-08-11T15:26:55.288Z,45.90
2022-08-11T15:29:44.063Z,47.40
2022-08-11T15:32:21.661Z,47.60
2022-08-11T15:35:16.097Z,45.90
2022-08-11T15:37:45.264Z,42.00
2022-08-11T15:40:37.491Z,37.50
2022-08-11T15:43:42.414Z,34.90
2022-08-11T15:46:21.928Z,33.20
2022-08-11T15:48:55.958Z,32.30
2022-08-11T15:51:40.772Z,32.10
2022-08-11T15:54:20.861Z,32.10
2022-08-11T15:56:50.613Z,32.10
2022-08-11T15:59:41.723Z,32.20
2022-08-11T16:02:32.751Z,32.30
2022-08-11T16:05:02.202Z,32.00
2022-08-11T16:07:32.587Z,32.10
2022-08-11T16:10:09.383Z,32.50
2022-08-11T16:13:03.115Z,32.60
2022-08-11T16:15:50.983Z,32.60
2022-08-11T16:18:21.211Z,32.80
2022-08-11T16:20:51.822Z,33.40
2022-08-11T16:23:19.611Z,37.20
2022-08-11T16:27:03.921Z,42.60
2022-08-11T16:28:34.918Z,45.70
2022-08-11T16:31:02.774Z,45.20
2022-08-11T16:33:51.343Z,46.70
2022-08-11T16:36:38.066Z,47.10
2022-08-11T16:39:06.406Z,48.80
2022-08-11T16:41:55.806Z,47.60
2022-08-11T16:44:42.791Z,48.00
2022-08-11T16:47:16.133Z,48.60
2022-08-11T16:49:52.345Z,48.70
2022-08-11T16:52:20.934Z,48.80
2022-08-11T16:54:47.857Z,49.00
2022-08-11T16:57:43.667Z,48.80
2022-08-11T17:00:14.845Z,48.30
2022-08-11T17:03:11.899Z,48.30
2022-08-11T17:06:13.153Z,48.00
2022-08-11T17:09:05.234Z,47.30
2022-08-11T17:11:56.629Z,48.20
2022-08-11T17:14:35.763Z,47.30
2022-08-11T17:17:25.972Z,47.50
2022-08-11T17:20:38.509Z,46.00
2022-08-11T17:23:03.094Z,45.40
2022-08-11T17:26:03.050Z,45.00
2022-08-11T17:28:24.404Z,44.60
2022-08-11T17:31:18.376Z,43.60
2022-08-11T17:34:14.690Z,45.10
2022-08-11T17:36:45.697Z,45.00
2022-08-11T17:39:14.381Z,45.20
2022-08-11T17:42:01.625Z,45.40
2022-08-11T17:44:48.970Z,45.10
2022-08-11T17:47:35.564Z,44.90
2022-08-11T17:50:10.605Z,43.20
2022-08-11T17:53:04.703Z,42.50
2022-08-11T17:55:53.615Z,42.50
2022-08-11T17:58:40.362Z,41.20
2022-08-11T18:01:09.501Z,41.40
2022-08-11T18:03:39.771Z,41.20
2022-08-11T18:06:12.581Z,39.40
2022-08-11T18:09:02.282Z,36.60
2022-08-11T18:12:06.621Z,34.40
2022-08-11T18:14:58.261Z,33.10
2022-08-11T18:17:43.763Z,31.80
2022-08-11T18:20:29.358Z,31.20
2022-08-11T18:23:15.297Z,30.40
2022-08-11T18:26:07.114Z,30.00
2022-08-11T18:29:00.640Z,29.40
2022-08-11T18:31:46.725Z,29.00
2022-08-11T18:34:35.620Z,28.80
2022-08-11T18:37:28.621Z,28.50
2022-08-11T18:40:23.142Z,28.10
2022-08-11T18:43:09.732Z,27.70
2022-08-11T18:46:06.452Z,27.50
2022-08-11T18:48:55.566Z,27.40
2022-08-11T18:51:44.119Z,27.00
2022-08-11T18:54:31.803Z,26.70
2022-08-11T18:57:22.348Z,26.60
2022-08-11T19:00:10.654Z,26.50
2022-08-11T19:02:57.935Z,26.30
2022-08-11T19:06:36.669Z,26.10
2022-08-11T19:08:55.678Z,25.90
2022-08-11T19:11:43.714Z,25.80
2022-08-11T19:14:31.018Z,25.70
2022-08-11T19:17:43.587Z,25.60
2022-08-11T19:20:29.608Z,25.40
2022-08-11T19:23:16.390Z,25.20
2022-08-11T19:26:03.390Z,25.00
2022-08-11T19:28:50.345Z,24.90
2022-08-11T19:31:39.820Z,24.70
2022-08-11T19:34:28.943Z,24.60
2022-08-11T19:37:15.430Z,24.40
2022-08-11T19:40:01.320Z,24.30
2022-08-11T19:42:47.685Z,24.20
2022-08-11T19:45:34.782Z,24.10
2022-08-11T19:48:31.793Z,24.00
2022-08-11T19:51:19.020Z,24.00
2022-08-11T19:54:06.955Z,23.90
2022-08-11T19:56:53.405Z,23.90
2022-08-11T19:59:40.878Z,23.80
2022-08-11T20:02:26.389Z,23.80
2022-08-11T20:05:11.511Z,23.70
2022-08-11T20:07:57.314Z,23.60
2022-08-11T20:10:45.345Z,23.40
2022-08-11T20:13:32.152Z,23.20
2022-08-11T20:16:20.224Z,23.00
2022-08-11T20:19:06.901Z,22.70
2022-08-11T20:21:53.202Z,22.50
2022-08-11T20:24:40.169Z,22.40
2022-08-11T20:27:27.173Z,22.30
2022-08-11T20:30:14.440Z,22.20
2022-08-11T20:33:00.970Z,22.10
2022-08-11T20:35:47.771Z,21.90
2022-08-11T20:38:34.749Z,21.90
2022-08-11T20:41:21.632Z,21.90
2022-08-11T20:44:09.571Z,21.80
2022-08-11T20:46:58.075Z,21.60
2022-08-11T20:49:53.778Z,21.50
2022-08-11T20:52:47.223Z,21.60
2022-08-11T20:59:13.885Z,21.40
2022-08-11T21:01:52.042Z,21.40
2022-08-11T21:04:54.517Z,21.30
2022-08-11T21:07:44.432Z,21.20
2022-08-11T21:10:44.685Z,21.10
2022-08-11T21:13:33.467Z,20.90
2022-08-11T21:16:26.270Z,20.80
2022-08-11T21:20:00.361Z,20.90
2022-08-11T21:22:59.063Z,20.70
2022-08-11T21:25:55.659Z,20.60
2022-08-11T21:28:45.713Z,20.50
2022-08-11T21:31:31.687Z,20.40
2022-08-11T21:34:18.259Z,20.40
2022-08-11T21:37:04.380Z,20.40
2022-08-11T21:39:50.512Z,20.40
2022-08-11T21:42:39.118Z,20.40
2022-08-11T21:45:26.795Z,20.30
2022-08-11T21:48:14.878Z,20.20
2022-08-11T21:51:00.308Z,20.10
2022-08-11T21:53:46.225Z,20.20
2022-08-11T21:56:33.143Z,20.20
2022-08-11T21:59:20.261Z,20.10
2022-08-11T22:02:12.433Z,20.00
2022-08-11T22:04:58.637Z,20.00
2022-08-11T22:07:44.153Z,20.00
2022-08-11T22:10:42.516Z,20.00
2022-08-11T22:13:32.197Z,20.00
2022-08-11T22:16:20.736Z,20.00
2022-08-11T22:19:07.523Z,19.90
2022-08-11T22:22:03.151Z,19.90
2022-08-11T22:24:51.461Z,19.80
2022-08-11T22:27:36.986Z,19.80
2022-08-11T22:30:27.523Z,19.70
2022-08-11T22:33:15.245Z,19.60
2022-08-11T22:36:01.924Z,19.50
2022-08-11T22:38:47.337Z,19.30
2022-08-11T22:41:32.678Z,19.30
2022-08-11T22:44:18.016Z,19.20
2022-08-11T22:47:04.436Z,19.10
2022-08-11T22:49:57.302Z,19.00
2022-08-11T22:52:44.968Z,18.90
2022-08-11T22:55:30.969Z,18.80
2022-08-11T22:58:16.456Z,18.90
2022-08-11T23:01:03.585Z,18.80
2022-08-11T23:03:50.370Z,18.80
2022-08-11T23:06:38.252Z,18.70
2022-08-11T23:09:24.955Z,18.60
2022-08-11T23:12:11.701Z,18.60
2022-08-11T23:14:59.177Z,18.60
2022-08-11T23:17:46.117Z,18.60
2022-08-11T23:20:47.989Z,18.60
2022-08-11T23:23:35.321Z,18.60
2022-08-11T23:26:21.867Z,18.60
2022-08-11T23:29:07.291Z,18.60
2022-08-11T23:31:54.490Z,18.60
2022-08-11T23:35:37.277Z,18.60
2022-08-11T23:37:50.398Z,18.60
2022-08-11T23:40:35.698Z,18.60
2022-08-11T23:43:21.474Z,18.40
2022-08-11T23:46:06.911Z,18.40
2022-08-11T23:48:55.441Z,18.30
2022-08-11T23:51:41.719Z,18.30
2022-08-11T23:54:29.965Z,18.20
2022-08-11T23:57:17.159Z,18.10
